Time;durP1;ratioP1;P1;durP2;ratioP2;P2;SDS_P1;SDS_P2;PMS_P1;PMS_P2;Temp;Humidity;BMP_temperature;BMP_pressure;BME280_temperature;BME280_humidity;BME280_pressure;Samples;Min_cycle;Max_cycle;Signal;HPM_P1;HPM_P2
2021/09/15 00:01:30;;;;;;;53.70;23.38;;;17.80;99.90;;;;;;5024524;28;20041;-61
2021/09/15 00:03:56;;;;;;;47.20;21.38;;;17.80;99.90;;;;;;5021353;28;20026;-60
2021/09/15 00:06:22;;;;;;;51.00;22.60;;;17.80;99.90;;;;;;5023095;28;20022;-63
2021/09/15 00:08:47;;;;;;;47.28;22.75;;;17.80;99.90;;;;;;5022585;28;20424;-63
2021/09/15 00:11:13;;;;;;;52.60;24.85;;;17.70;99.90;;;;;;5022538;28;20030;-61
2021/09/15 00:13:40;;;;;;;55.05;25.55;;;17.70;99.90;;;;;;5023563;28;20034;-61
2021/09/15 00:16:05;;;;;;;50.17;25.17;;;17.70;99.90;;;;;;5021295;28;20034;-63
2021/09/15 00:18:31;;;;;;;50.13;23.67;;;17.70;99.90;;;;;;5019841;28;20030;-61
2021/09/15 00:20:57;;;;;;;50.63;22.55;;;17.70;99.90;;;;;;5024203;28;20040;-60
2021/09/15 00:23:22;;;;;;;50.75;23.35;;;17.70;99.90;;;;;;5021361;28;20127;-60
2021/09/15 00:25:48;;;;;;;50.88;24.52;;;17.70;99.90;;;;;;5022984;28;20042;-61
2021/09/15 00:28:13;;;;;;;47.67;23.30;;;17.70;99.90;;;;;;5022346;28;20036;-60
2021/09/15 00:30:39;;;;;;;48.95;23.98;;;17.70;99.90;;;;;;5021382;28;20040;-62
2021/09/15 00:33:05;;;;;;;54.42;25.00;;;17.70;99.90;;;;;;5023600;28;20060;-60
2021/09/15 00:35:30;;;;;;;50.03;25.23;;;17.70;99.90;;;;;;5020309;28;20054;-62
2021/09/15 00:37:56;;;;;;;57.28;25.23;;;17.60;99.90;;;;;;5023859;28;20485;-63
2021/09/15 00:40:22;;;;;;;52.88;24.95;;;17.60;99.90;;;;;;5019308;28;20082;-62
2021/09/15 00:42:48;;;;;;;56.70;26.45;;;17.60;99.90;;;;;;5021945;28;20087;-60
2021/09/15 00:45:13;;;;;;;51.42;25.13;;;17.60;99.90;;;;;;5022095;28;20057;-60
2021/09/15 00:47:40;;;;;;;59.33;26.50;;;17.60;99.90;;;;;;5022155;28;20029;-61
2021/09/15 00:50:06;;;;;;;54.85;24.88;;;17.60;99.90;;;;;;5020863;28;20022;-60
2021/09/15 00:52:32;;;;;;;50.67;23.52;;;17.60;99.90;;;;;;5023390;28;20064;-60
2021/09/15 00:54:58;;;;;;;48.55;21.58;;;17.50;99.90;;;;;;5020400;28;20037;-62
2021/09/15 00:57:24;;;;;;;53.42;24.33;;;17.60;99.90;;;;;;5022953;28;20109;-60
2021/09/15 00:59:49;;;;;;;46.75;24.60;;;17.60;99.90;;;;;;5020934;28;20112;-60
2021/09/15 01:02:15;;;;;;;48.28;24.52;;;17.60;99.90;;;;;;5022049;28;20034;-61
2021/09/15 01:04:40;;;;;;;48.45;23.73;;;17.60;99.90;;;;;;5021832;28;20036;-60
2021/09/15 01:07:06;;;;;;;50.22;23.63;;;17.60;99.90;;;;;;5020684;28;20076;-60
2021/09/15 01:09:35;;;;;;;51.15;22.25;;;17.70;99.90;;;;;;5022553;28;20055;-60
2021/09/15 01:12:01;;;;;;;48.95;21.88;;;17.70;99.90;;;;;;5020010;28;20026;-61
2021/09/15 01:14:27;;;;;;;40.42;20.40;;;17.70;99.90;;;;;;5022910;28;20508;-62
2021/09/15 01:16:55;;;;;;;41.10;20.88;;;17.70;99.90;;;;;;5019907;28;20371;-63
2021/09/15 01:19:22;;;;;;;45.10;21.48;;;17.70;99.90;;;;;;5019722;28;20033;-63
2021/09/15 01:21:48;;;;;;;41.90;19.02;;;17.60;99.90;;;;;;5022036;28;20531;-61
2021/09/15 01:24:14;;;;;;;38.47;18.92;;;17.60;99.90;;;;;;5019832;28;20030;-60
2021/09/15 01:26:40;;;;;;;36.30;17.42;;;17.70;99.90;;;;;;5020595;28;20057;-60
2021/09/15 01:29:15;;;;;;;36.28;18.98;;;17.60;99.90;;;;;;5021918;28;20041;-61
2021/09/15 01:31:59;;;;;;;34.67;17.33;;;17.60;99.90;;;;;;5020903;28;20029;-63
2021/09/15 01:34:26;;;;;;;34.78;17.17;;;17.50;99.90;;;;;;5015399;28;20026;-62
2021/09/15 01:36:52;;;;;;;32.50;16.88;;;17.50;99.90;;;;;;5022316;28;20041;-61
2021/09/15 01:39:18;;;;;;;34.28;17.65;;;17.50;99.90;;;;;;5019912;28;20032;-61
2021/09/15 01:41:44;;;;;;;37.42;18.08;;;17.50;99.90;;;;;;5018984;28;20030;-62
2021/09/15 01:44:09;;;;;;;37.65;17.17;;;17.50;99.90;;;;;;5020834;28;20409;-62
2021/09/15 01:46:35;;;;;;;34.85;16.02;;;17.50;99.90;;;;;;5021294;28;20026;-60
2021/09/15 01:49:00;;;;;;;29.42;15.07;;;17.50;99.90;;;;;;5019430;28;20030;-60
2021/09/15 01:51:26;;;;;;;30.25;15.75;;;17.50;99.90;;;;;;5022727;28;20103;-62
2021/09/15 01:53:51;;;;;;;32.08;15.00;;;17.50;99.90;;;;;;5017995;28;20113;-63
2021/09/15 01:56:17;;;;;;;29.77;15.02;;;17.40;99.90;;;;;;5021712;28;20037;-60
2021/09/15 01:58:42;;;;;;;29.70;16.10;;;17.40;99.90;;;;;;5019990;28;20549;-61
2021/09/15 02:01:08;;;;;;;27.88;15.52;;;17.40;99.90;;;;;;5023248;28;20538;-62
2021/09/15 02:03:34;;;;;;;36.40;14.85;;;17.40;99.90;;;;;;5020053;28;20026;-63
2021/09/15 02:05:59;;;;;;;28.15;14.52;;;17.30;99.90;;;;;;5021549;28;20117;-61
2021/09/15 02:08:25;;;;;;;30.55;13.20;;;17.30;99.90;;;;;;5018886;28;20033;-60
2021/09/15 02:10:52;;;;;;;25.25;13.52;;;17.30;99.90;;;;;;5021747;28;20025;-61
2021/09/15 02:13:17;;;;;;;26.65;14.05;;;17.20;99.90;;;;;;5019571;28;20034;-61
2021/09/15 02:15:43;;;;;;;24.70;12.85;;;17.20;99.90;;;;;;5020593;28;20124;-60
2021/09/15 02:18:09;;;;;;;30.63;14.88;;;17.10;99.90;;;;;;5020290;28;20030;-62
2021/09/15 02:20:35;;;;;;;25.65;13.88;;;17.10;99.90;;;;;;5021099;28;20079;-60
2021/09/15 02:23:01;;;;;;;24.13;12.35;;;17.10;99.90;;;;;;5017917;28;20033;-62
2021/09/15 02:25:27;;;;;;;23.17;12.43;;;17.10;99.90;;;;;;5021805;28;20362;-60
2021/09/15 02:27:53;;;;;;;27.70;13.55;;;17.10;99.90;;;;;;5017735;28;20496;-61
2021/09/15 02:30:18;;;;;;;27.75;14.68;;;17.10;99.90;;;;;;5021691;28;20041;-61
2021/09/15 02:32:44;;;;;;;24.77;13.60;;;17.10;99.90;;;;;;5019654;28;20034;-64
2021/09/15 02:35:10;;;;;;;28.58;13.90;;;17.10;99.90;;;;;;5020557;28;20091;-61
2021/09/15 02:37:35;;;;;;;29.42;13.75;;;17.10;99.90;;;;;;5020709;28;20034;-60
2021/09/15 02:40:01;;;;;;;31.23;15.00;;;17.10;99.90;;;;;;5018738;28;20112;-62
2021/09/15 02:42:26;;;;;;;33.83;15.15;;;17.10;99.90;;;;;;5018708;28;20401;-61
2021/09/15 02:44:52;;;;;;;32.70;14.05;;;17.10;99.90;;;;;;5021575;28;20489;-60
2021/09/15 02:47:18;;;;;;;29.58;13.90;;;17.10;99.90;;;;;;5018733;28;20046;-61
2021/09/15 02:49:43;;;;;;;31.55;14.23;;;17.10;99.90;;;;;;5020200;28;20065;-61
2021/09/15 02:52:09;;;;;;;30.65;15.75;;;17.10;99.90;;;;;;5018270;28;20037;-62
2021/09/15 02:54:34;;;;;;;31.25;14.98;;;17.10;99.90;;;;;;5016992;28;20064;-61
2021/09/15 02:57:00;;;;;;;28.92;13.65;;;17.10;99.90;;;;;;5017666;28;20037;-60
2021/09/15 02:59:25;;;;;;;33.95;13.50;;;17.10;99.90;;;;;;5018510;28;20164;-62
2021/09/15 03:01:51;;;;;;;33.75;14.68;;;17.10;99.90;;;;;;5021372;28;20030;-61
2021/09/15 03:04:17;;;;;;;30.70;13.13;;;17.20;99.90;;;;;;5018649;28;20030;-60
2021/09/15 03:06:42;;;;;;;35.38;14.05;;;17.20;99.90;;;;;;5020971;28;20034;-63
2021/09/15 03:09:08;;;;;;;24.50;12.65;;;17.10;99.90;;;;;;5017793;28;20026;-62
2021/09/15 03:11:34;;;;;;;22.05;12.00;;;17.10;99.90;;;;;;5018310;28;20096;-65
2021/09/15 03:13:59;;;;;;;27.02;11.90;;;17.10;99.90;;;;;;5020355;28;20084;-62
2021/09/15 03:16:25;;;;;;;25.67;12.35;;;17.10;99.90;;;;;;5018152;28;20375;-62
2021/09/15 03:18:52;;;;;;;28.50;12.32;;;17.10;99.90;;;;;;5020457;28;20034;-61
2021/09/15 03:21:18;;;;;;;25.13;11.30;;;17.10;99.90;;;;;;5021014;28;20466;-62
2021/09/15 03:23:43;;;;;;;27.98;12.23;;;17.10;99.90;;;;;;5018852;28;20030;-62
2021/09/15 03:26:09;;;;;;;34.00;13.10;;;17.00;99.90;;;;;;5019418;28;20040;-62
2021/09/15 03:28:34;;;;;;;25.15;12.95;;;17.10;99.90;;;;;;5019499;28;20064;-63
2021/09/15 03:31:00;;;;;;;23.70;12.30;;;17.10;99.90;;;;;;5022384;28;20061;-62
2021/09/15 03:33:25;;;;;;;25.05;12.38;;;17.10;99.90;;;;;;5024494;28;20034;-61
2021/09/15 03:35:51;;;;;;;19.85;11.02;;;17.10;99.90;;;;;;5021669;28;20477;-62
2021/09/15 03:38:17;;;;;;;21.95;11.93;;;17.10;99.90;;;;;;5023862;28;20034;-61
2021/09/15 03:40:42;;;;;;;26.33;12.35;;;17.20;99.90;;;;;;5022360;28;20120;-61
2021/09/15 03:43:08;;;;;;;23.00;11.32;;;17.20;99.90;;;;;;5022404;28;20040;-62
2021/09/15 03:45:33;;;;;;;23.38;11.57;;;17.20;99.90;;;;;;5023519;28;20064;-63
2021/09/15 03:47:59;;;;;;;20.90;10.55;;;17.20;99.90;;;;;;5023726;28;20029;-60
2021/09/15 03:50:25;;;;;;;21.15;10.93;;;17.20;99.90;;;;;;5020446;28;20046;-63
2021/09/15 03:52:50;;;;;;;19.98;10.65;;;17.20;99.90;;;;;;5024699;28;20348;-62
2021/09/15 03:55:16;;;;;;;22.83;11.07;;;17.20;99.90;;;;;;5016929;28;20030;-62
2021/09/15 03:57:41;;;;;;;21.15;10.93;;;17.20;99.90;;;;;;5021381;28;20100;-62
2021/09/15 04:00:07;;;;;;;19.27;10.63;;;17.20;99.90;;;;;;5023079;28;20068;-66
2021/09/15 04:02:33;;;;;;;27.33;11.57;;;17.20;99.90;;;;;;5022358;28;20033;-64
2021/09/15 04:04:59;;;;;;;19.45;10.98;;;17.20;99.90;;;;;;5022608;28;20037;-62
2021/09/15 04:07:24;;;;;;;20.33;10.35;;;17.20;99.90;;;;;;5023112;28;20037;-62
2021/09/15 04:09:50;;;;;;;21.35;10.23;;;17.30;99.90;;;;;;5020929;28;20452;-62
2021/09/15 04:12:15;;;;;;;16.95;9.32;;;17.30;99.90;;;;;;5024303;28;20038;-63
2021/09/15 04:14:41;;;;;;;21.73;10.60;;;17.20;99.90;;;;;;5021731;28;20030;-61
2021/09/15 04:17:07;;;;;;;21.73;10.02;;;17.30;99.90;;;;;;5020827;28;20061;-62
2021/09/15 04:19:33;;;;;;;16.95;9.52;;;17.30;99.90;;;;;;5022205;28;20528;-62
2021/09/15 04:21:59;;;;;;;20.75;10.73;;;17.30;99.90;;;;;;5023165;28;20041;-61
2021/09/15 04:32:12;;;;;;;23.58;10.40;;;17.40;99.90;;;;;;5024076;28;20037;-64
2021/09/15 04:34:37;;;;;;;27.77;11.20;;;17.30;99.90;;;;;;5031317;28;20025;-62
2021/09/15 04:37:03;;;;;;;20.98;9.70;;;17.40;99.90;;;;;;5024999;28;20521;-62
2021/09/15 04:39:28;;;;;;;20.75;11.20;;;17.40;99.90;;;;;;5025117;28;20037;-62
2021/09/15 04:41:54;;;;;;;22.17;10.20;;;17.50;99.90;;;;;;5025968;28;20489;-64
2021/09/15 04:44:20;;;;;;;25.98;10.93;;;17.40;99.90;;;;;;5023638;28;20033;-63
2021/09/15 04:46:45;;;;;;;24.85;11.30;;;17.50;99.90;;;;;;5019806;28;20510;-63
2021/09/15 04:49:11;;;;;;;25.85;12.20;;;17.50;99.90;;;;;;5023182;28;20159;-63
2021/09/15 04:51:36;;;;;;;24.02;11.65;;;17.50;99.90;;;;;;5020754;28;20617;-62
2021/09/15 04:54:02;;;;;;;21.00;10.70;;;17.50;99.90;;;;;;5021842;28;20029;-64
2021/09/15 04:56:28;;;;;;;22.85;10.70;;;17.50;99.90;;;;;;5017264;28;20049;-61
2021/09/15 04:58:53;;;;;;;26.38;11.05;;;17.50;99.90;;;;;;5010843;28;20040;-61
2021/09/15 05:01:19;;;;;;;19.98;11.15;;;17.50;99.90;;;;;;5014310;28;20121;-61
2021/09/15 05:03:44;;;;;;;25.83;11.25;;;17.60;99.90;;;;;;5010018;28;20129;-61
2021/09/15 05:06:10;;;;;;;21.08;11.90;;;17.60;99.90;;;;;;5019498;28;20033;-61
2021/09/15 05:08:36;;;;;;;25.60;11.70;;;17.60;99.90;;;;;;5013678;28;20088;-61
2021/09/15 05:11:01;;;;;;;34.58;12.68;;;17.60;99.90;;;;;;5012637;28;20092;-61
2021/09/15 05:13:27;;;;;;;28.42;11.98;;;17.60;99.90;;;;;;5014354;28;20737;-62
2021/09/15 05:15:52;;;;;;;25.45;11.50;;;17.60;99.90;;;;;;5010113;28;20042;-61
2021/09/15 05:18:18;;;;;;;25.05;12.02;;;17.60;99.90;;;;;;5011276;28;20045;-61
2021/09/15 05:20:44;;;;;;;25.15;12.25;;;17.70;99.90;;;;;;5015827;28;20072;-61
2021/09/15 05:23:09;;;;;;;24.73;12.07;;;17.70;99.90;;;;;;5013375;28;20536;-61
2021/09/15 05:25:35;;;;;;;21.73;12.13;;;17.70;99.90;;;;;;5011243;28;20037;-61
2021/09/15 05:28:01;;;;;;;25.55;12.82;;;17.70;99.90;;;;;;5014567;28;20493;-61
2021/09/15 05:30:26;;;;;;;27.85;12.07;;;17.70;99.90;;;;;;5014866;28;20413;-61
2021/09/15 05:32:52;;;;;;;23.75;11.35;;;17.70;99.90;;;;;;5011383;28;20120;-61
2021/09/15 05:35:18;;;;;;;21.75;11.18;;;17.70;99.90;;;;;;5013174;28;20410;-61
2021/09/15 05:37:44;;;;;;;29.35;12.38;;;17.70;99.90;;;;;;5013892;28;20045;-61
2021/09/15 05:40:10;;;;;;;25.63;11.85;;;17.70;99.90;;;;;;5009213;28;20053;-60
2021/09/15 05:42:36;;;;;;;28.52;12.63;;;17.70;99.90;;;;;;5013643;28;20072;-61
2021/09/15 05:45:02;;;;;;;26.73;12.52;;;17.60;99.90;;;;;;5016191;28;20030;-62
2021/09/15 05:47:29;;;;;;;24.17;11.23;;;17.70;99.90;;;;;;5014773;28;20120;-60
2021/09/15 05:49:56;;;;;;;29.85;12.80;;;17.60;99.90;;;;;;5013077;28;20038;-61
2021/09/15 05:52:22;;;;;;;23.70;11.70;;;17.50;99.90;;;;;;5013580;28;20026;-61
2021/09/15 05:54:47;;;;;;;23.05;11.48;;;17.50;99.90;;;;;;5015466;28;20609;-61
2021/09/15 05:57:13;;;;;;;28.42;11.45;;;17.50;99.90;;;;;;5011083;28;20065;-61
2021/09/15 05:59:38;;;;;;;26.60;13.20;;;17.50;99.90;;;;;;5012558;28;20034;-61
2021/09/15 06:02:04;;;;;;;24.67;12.57;;;17.50;99.90;;;;;;5017011;28;20061;-61
2021/09/15 06:04:29;;;;;;;26.10;12.00;;;17.40;99.90;;;;;;5012264;28;20037;-61
2021/09/15 06:06:55;;;;;;;29.40;12.05;;;17.40;99.90;;;;;;5013065;28;20042;-60
2021/09/15 06:09:21;;;;;;;25.80;12.25;;;17.40;99.90;;;;;;5012368;28;20493;-61
2021/09/15 06:11:46;;;;;;;27.45;12.52;;;17.40;99.90;;;;;;5012222;28;20041;-61
2021/09/15 06:14:12;;;;;;;31.83;15.05;;;17.40;99.90;;;;;;5012463;28;20026;-61
2021/09/15 06:16:37;;;;;;;28.70;14.05;;;17.30;99.90;;;;;;5014903;28;20116;-63
2021/09/15 06:19:03;;;;;;;30.17;14.18;;;17.40;99.90;;;;;;5011226;28;20746;-61
2021/09/15 06:21:29;;;;;;;29.88;13.13;;;17.30;99.90;;;;;;5013385;28;20498;-61
2021/09/15 06:23:54;;;;;;;30.13;14.73;;;17.40;99.90;;;;;;5014036;28;20072;-62
2021/09/15 06:26:24;;;;;;;30.85;13.90;;;17.40;99.90;;;;;;5014960;28;20033;-62
2021/09/15 06:28:53;;;;;;;36.07;14.53;;;17.50;99.90;;;;;;5012212;28;20037;-62
2021/09/15 06:31:20;;;;;;;42.78;15.52;;;17.60;99.90;;;;;;5010885;28;20308;-61
2021/09/15 06:33:46;;;;;;;36.70;14.32;;;17.70;99.90;;;;;;5011728;28;20859;-64
2021/09/15 06:36:12;;;;;;;34.63;14.77;;;17.70;99.90;;;;;;5013017;28;20040;-62
2021/09/15 06:38:40;;;;;;;32.33;14.88;;;17.70;99.90;;;;;;5011568;28;20149;-67
2021/09/15 06:41:06;;;;;;;32.13;15.32;;;17.80;99.90;;;;;;5015879;28;20100;-62
2021/09/15 06:43:31;;;;;;;35.22;16.48;;;17.90;99.90;;;;;;5011220;28;20600;-62
2021/09/15 06:45:57;;;;;;;35.28;14.23;;;17.90;99.90;;;;;;5011630;28;20520;-61
2021/09/15 06:48:22;;;;;;;40.28;15.07;;;17.90;99.90;;;;;;5015249;28;20136;-61
2021/09/15 06:50:48;;;;;;;35.90;14.48;;;18.00;99.90;;;;;;5012725;28;20405;-61
2021/09/15 06:53:13;;;;;;;34.80;14.60;;;18.00;99.90;;;;;;5012546;28;20428;-61
2021/09/15 06:55:39;;;;;;;36.00;14.98;;;17.90;99.90;;;;;;5015068;28;20582;-62
2021/09/15 06:58:05;;;;;;;34.08;14.35;;;17.90;99.90;;;;;;5014771;28;20033;-61
2021/09/15 07:00:30;;;;;;;35.10;14.23;;;17.90;99.90;;;;;;5012035;28;20034;-61
2021/09/15 07:02:57;;;;;;;30.40;13.35;;;17.90;99.90;;;;;;5011757;28;20440;-61
2021/09/15 07:05:23;;;;;;;33.85;14.15;;;17.90;99.90;;;;;;5014212;28;20105;-61
2021/09/15 07:07:49;;;;;;;36.90;14.80;;;17.90;99.90;;;;;;5016239;28;20336;-62
2021/09/15 07:10:17;;;;;;;33.97;14.55;;;17.90;99.90;;;;;;5014456;28;20114;-61
2021/09/15 07:12:44;;;;;;;35.47;14.52;;;17.90;99.90;;;;;;5016628;28;20140;-61
2021/09/15 07:15:10;;;;;;;33.85;13.80;;;18.00;99.90;;;;;;5017557;28;20393;-62
2021/09/15 07:17:36;;;;;;;39.97;14.55;;;18.00;99.90;;;;;;5012728;28;20034;-61
2021/09/15 07:20:02;;;;;;;32.08;13.95;;;18.00;99.90;;;;;;5015995;28;20390;-61
2021/09/15 07:22:28;;;;;;;35.45;13.13;;;18.00;99.90;;;;;;5017847;28;20038;-62
2021/09/15 07:24:53;;;;;;;30.42;12.75;;;18.10;99.90;;;;;;5016976;28;20089;-61
2021/09/15 07:27:19;;;;;;;29.63;14.50;;;18.00;99.90;;;;;;5017320;28;20036;-62
2021/09/15 07:29:45;;;;;;;28.88;13.32;;;18.10;99.90;;;;;;5017159;28;20485;-62
2021/09/15 07:32:10;;;;;;;38.05;15.45;;;18.10;99.90;;;;;;5012339;28;20125;-61
2021/09/15 07:34:37;;;;;;;30.60;14.50;;;18.10;99.90;;;;;;5015857;28;20034;-61
2021/09/15 07:37:03;;;;;;;35.40;14.95;;;18.10;99.90;;;;;;5016748;28;20030;-61
2021/09/15 07:39:28;;;;;;;36.10;14.75;;;18.10;99.90;;;;;;5016396;28;20412;-61
2021/09/15 07:41:54;;;;;;;29.73;14.20;;;18.10;99.90;;;;;;5014011;28;20045;-61
2021/09/15 07:44:19;;;;;;;33.03;15.35;;;18.20;99.90;;;;;;5015552;28;20030;-61
2021/09/15 07:46:45;;;;;;;38.97;14.65;;;18.20;99.90;;;;;;5018535;28;20056;-61
2021/09/15 07:49:11;;;;;;;32.78;14.75;;;18.20;99.90;;;;;;5012024;28;20033;-61
2021/09/15 07:51:36;;;;;;;32.67;14.75;;;18.20;99.90;;;;;;5016770;28;20053;-62
2021/09/15 07:54:02;;;;;;;38.92;16.30;;;18.20;99.90;;;;;;5016475;28;20083;-62
2021/09/15 07:56:27;;;;;;;33.58;14.98;;;18.20;99.90;;;;;;5018600;28;20042;-61
2021/09/15 07:58:53;;;;;;;40.42;16.02;;;18.20;99.90;;;;;;5015030;28;20196;-61
2021/09/15 08:01:21;;;;;;;31.83;13.65;;;18.10;99.90;;;;;;5014810;28;20038;-61
2021/09/15 08:03:47;;;;;;;36.92;16.10;;;18.10;99.90;;;;;;5015534;28;20041;-61
2021/09/15 08:06:12;;;;;;;33.47;16.48;;;18.00;99.90;;;;;;5012609;28;20022;-61
2021/09/15 08:08:38;;;;;;;40.35;16.02;;;18.10;99.90;;;;;;5015287;28;20515;-61
2021/09/15 08:11:03;;;;;;;32.70;15.18;;;18.10;99.90;;;;;;5013441;28;20030;-61
2021/09/15 08:13:29;;;;;;;38.55;15.15;;;18.10;99.90;;;;;;5015300;28;20029;-61
2021/09/15 08:15:55;;;;;;;35.75;15.52;;;18.10;99.90;;;;;;5011851;28;20593;-61
2021/09/15 08:18:20;;;;;;;32.50;14.93;;;18.20;99.90;;;;;;5014923;28;20437;-60
2021/09/15 08:20:46;;;;;;;40.47;15.30;;;18.20;99.90;;;;;;5014532;28;20108;-62
2021/09/15 08:23:19;;;;;;;34.53;15.52;;;18.20;99.90;;;;;;5012859;28;20117;-61
2021/09/15 08:25:45;;;;;;;29.90;14.68;;;18.30;99.90;;;;;;5013895;28;20426;-61
2021/09/15 08:28:11;;;;;;;30.02;15.50;;;18.30;99.90;;;;;;5010162;28;20041;-60
2021/09/15 08:30:37;;;;;;;35.17;14.82;;;18.40;99.90;;;;;;5010580;28;20041;-61
2021/09/15 08:33:03;;;;;;;37.08;16.55;;;18.40;99.90;;;;;;5013543;28;20482;-61
2021/09/15 08:35:30;;;;;;;32.85;15.35;;;18.50;99.90;;;;;;5019389;28;20049;-60
2021/09/15 08:37:57;;;;;;;29.92;14.40;;;18.70;99.90;;;;;;5015179;28;20125;-61
2021/09/15 08:40:23;;;;;;;30.25;14.80;;;18.80;99.90;;;;;;5011814;28;20026;-61
2021/09/15 08:42:49;;;;;;;28.17;14.57;;;18.80;99.90;;;;;;5012143;28;20065;-61
2021/09/15 08:45:15;;;;;;;30.90;14.85;;;18.90;99.90;;;;;;5015314;28;20026;-61
2021/09/15 08:47:46;;;;;;;28.77;13.95;;;18.90;99.90;;;;;;5014667;28;20034;-61
2021/09/15 08:50:14;;;;;;;26.48;12.90;;;18.90;99.90;;;;;;5010673;28;20033;-61
2021/09/15 08:52:39;;;;;;;31.48;14.80;;;18.90;99.90;;;;;;5010828;28;20057;-61
2021/09/15 08:55:06;;;;;;;26.92;13.63;;;18.80;99.90;;;;;;5010266;28;20457;-61
2021/09/15 08:57:33;;;;;;;27.85;13.32;;;18.80;99.90;;;;;;5011775;28;20439;-61
2021/09/15 08:59:59;;;;;;;29.70;14.63;;;18.80;99.90;;;;;;5011048;28;20141;-60
2021/09/15 09:02:26;;;;;;;24.33;13.35;;;18.80;99.90;;;;;;5013991;28;20567;-61
2021/09/15 09:05:02;;;;;;;25.35;13.38;;;18.80;99.90;;;;;;5014510;28;20041;-61
2021/09/15 09:20:35;;;;;;;14.27;7.40;;;18.70;99.90;;;;;;5468055;22;20412;-73
2021/09/15 09:23:21;;;;;;;12.70;6.70;;;18.70;99.90;;;;;;5029589;28;20136;-73
2021/09/15 09:25:53;;;;;;;11.63;6.20;;;18.60;99.90;;;;;;5029150;28;20072;-73
2021/09/15 09:28:34;;;;;;;14.13;6.88;;;18.50;99.90;;;;;;5030347;28;20038;-74
2021/09/15 09:31:05;;;;;;;10.60;6.15;;;18.50;99.90;;;;;;5009435;28;20448;-74
2021/09/15 09:33:32;;;;;;;9.07;5.55;;;18.60;99.90;;;;;;5009145;28;20397;-73
2021/09/15 09:36:02;;;;;;;11.88;5.60;;;18.50;99.90;;;;;;5016105;28;20053;-73
2021/09/15 09:38:39;;;;;;;9.88;6.22;;;18.50;99.90;;;;;;5018791;28;20041;-74
2021/09/15 09:41:07;;;;;;;11.65;6.70;;;18.60;99.90;;;;;;5008040;28;20033;-73
2021/09/15 09:43:36;;;;;;;12.57;5.90;;;18.60;99.90;;;;;;5011059;28;20041;-73
2021/09/15 09:46:03;;;;;;;9.35;5.40;;;18.50;99.90;;;;;;5011208;28;20050;-73
2021/09/15 09:48:35;;;;;;;11.05;5.93;;;18.70;99.90;;;;;;5015552;28;20037;-73
2021/09/15 09:51:04;;;;;;;9.77;4.72;;;18.80;99.90;;;;;;5015314;28;20033;-73
2021/09/15 09:53:30;;;;;;;9.07;5.28;;;18.90;99.90;;;;;;5026461;28;20033;-73
2021/09/15 09:55:58;;;;;;;11.07;5.32;;;18.90;99.90;;;;;;5025585;28;21361;-73
2021/09/15 09:58:25;;;;;;;13.95;5.35;;;19.00;99.90;;;;;;5026915;28;20100;-72
2021/09/15 10:00:55;;;;;;;7.15;4.40;;;19.10;99.90;;;;;;5026705;28;20358;-72
2021/09/15 10:03:21;;;;;;;13.23;5.33;;;19.30;99.90;;;;;;5026715;28;20094;-73
2021/09/15 10:05:48;;;;;;;10.00;4.50;;;19.40;99.90;;;;;;5028351;28;20460;-73
2021/09/15 10:08:17;;;;;;;9.35;4.28;;;19.60;99.90;;;;;;5026542;28;20041;-73
2021/09/15 10:10:47;;;;;;;6.13;3.83;;;19.70;99.90;;;;;;5028037;28;20029;-73
2021/09/15 10:13:14;;;;;;;6.63;3.80;;;19.90;99.90;;;;;;5028338;28;20407;-73
2021/09/15 10:15:49;;;;;;;7.78;3.88;;;20.00;99.90;;;;;;5025315;28;20025;-73
2021/09/15 10:18:16;;;;;;;8.25;3.42;;;20.10;99.90;;;;;;5027011;28;20064;-73
2021/09/15 10:20:53;;;;;;;6.10;3.00;;;20.20;99.90;;;;;;5027546;28;20056;-72
2021/09/15 10:23:40;;;;;;;6.10;3.17;;;20.20;99.90;;;;;;5025269;28;20098;-72
2021/09/15 10:26:25;;;;;;;7.07;3.30;;;20.20;99.90;;;;;;5026719;28;20108;-72
2021/09/15 10:29:32;;;;;;;5.50;3.08;;;20.10;99.90;;;;;;5026110;28;20037;-71
2021/09/15 10:32:03;;;;;;;4.32;2.55;;;20.10;99.90;;;;;;5027858;28;20479;-72
2021/09/15 10:34:40;;;;;;;6.82;3.20;;;20.10;99.90;;;;;;5025965;28;20080;-72
2021/09/15 10:37:12;;;;;;;5.80;2.83;;;20.20;99.90;;;;;;5028806;28;20454;-71
2021/09/15 10:39:58;;;;;;;4.32;2.05;;;20.20;99.90;;;;;;5026321;28;20048;-71
2021/09/15 10:42:46;;;;;;;5.82;1.95;;;20.20;99.90;;;;;;5030291;28;20488;-71
2021/09/15 10:45:17;;;;;;;7.07;2.13;;;20.20;99.90;;;;;;5028765;28;20037;-71
2021/09/15 10:47:48;;;;;;;3.70;1.70;;;20.20;99.90;;;;;;5031007;28;20037;-72
2021/09/15 10:50:27;;;;;;;2.83;1.40;;;20.20;99.90;;;;;;5028757;28;20481;-71
2021/09/15 10:53:15;;;;;;;4.20;1.60;;;20.30;99.90;;;;;;5024823;28;20037;-72
2021/09/15 10:55:50;;;;;;;3.60;1.20;;;20.20;99.90;;;;;;5029347;28;20424;-72
2021/09/15 10:58:25;;;;;;;3.15;1.42;;;20.10;99.90;;;;;;5030490;28;20156;-72
2021/09/15 11:01:02;;;;;;;10.05;1.50;;;20.10;99.90;;;;;;5027634;28;20061;-71
2021/09/15 11:03:40;;;;;;;3.47;1.25;;;20.20;99.90;;;;;;5028235;28;20052;-72
2021/09/15 11:06:12;;;;;;;3.22;1.10;;;20.10;99.90;;;;;;5029142;28;20136;-72
2021/09/15 11:08:49;;;;;;;1.58;0.70;;;20.20;99.90;;;;;;5029319;28;20550;-72
2021/09/15 11:11:20;;;;;;;3.53;0.68;;;20.10;99.90;;;;;;5028995;28;20033;-72
2021/09/15 11:14:03;;;;;;;5.78;0.68;;;20.20;99.90;;;;;;5027132;28;20060;-72
2021/09/15 11:16:33;;;;;;;10.30;1.40;;;20.20;99.90;;;;;;5028622;28;20048;-73
2021/09/15 11:19:12;;;;;;;5.45;1.05;;;20.20;99.90;;;;;;5034964;28;20087;-72
2021/09/15 11:21:48;;;;;;;2.60;0.60;;;20.10;99.90;;;;;;5031951;28;20041;-72
2021/09/15 11:24:20;;;;;;;4.22;0.60;;;20.20;99.90;;;;;;5034903;28;20167;-72
2021/09/15 11:26:54;;;;;;;1.83;0.40;;;20.30;99.90;;;;;;5039780;28;20038;-72
2021/09/15 11:29:38;;;;;;;4.80;1.00;;;20.40;99.90;;;;;;5035141;28;20035;-72
2021/09/15 11:32:06;;;;;;;2.83;0.60;;;20.60;99.90;;;;;;5005101;28;20117;-72
2021/09/15 11:34:47;;;;;;;3.10;0.50;;;20.70;99.90;;;;;;5011846;28;20061;-71
2021/09/15 11:37:23;;;;;;;3.20;0.55;;;20.80;99.90;;;;;;5021368;28;20491;-72
2021/09/15 11:39:57;;;;;;;3.90;0.57;;;20.90;99.90;;;;;;5006197;28;20497;-72
2021/09/15 11:42:32;;;;;;;3.80;0.55;;;20.90;99.90;;;;;;5010418;28;20034;-71
2021/09/15 11:45:24;;;;;;;1.77;0.55;;;20.90;99.90;;;;;;5011550;28;20034;-71
2021/09/15 11:47:52;;;;;;;2.13;0.60;;;21.00;99.90;;;;;;5017716;28;20032;-71
2021/09/15 11:50:33;;;;;;;2.85;0.52;;;20.90;99.90;;;;;;5015212;28;20034;-71
2021/09/15 11:53:05;;;;;;;3.17;0.40;;;20.90;99.90;;;;;;5016635;28;20065;-71
2021/09/15 11:55:34;;;;;;;3.85;0.50;;;20.80;99.90;;;;;;5021664;28;20041;-71
2021/09/15 11:58:01;;;;;;;2.50;0.43;;;20.60;99.90;;;;;;5019103;28;20438;-72
2021/09/15 12:00:28;;;;;;;3.30;0.60;;;20.50;99.90;;;;;;5023610;28;20033;-72
2021/09/15 12:02:56;;;;;;;3.30;0.98;;;20.40;99.90;;;;;;5023022;28;20108;-71
2021/09/15 12:05:22;;;;;;;3.65;0.40;;;20.30;99.90;;;;;;5023726;28;20124;-72
2021/09/15 12:07:47;;;;;;;1.73;0.40;;;20.20;99.90;;;;;;5020176;28;20125;-71
2021/09/15 12:10:13;;;;;;;2.08;0.77;;;20.10;99.90;;;;;;5022795;28;20058;-71
2021/09/15 12:12:39;;;;;;;4.22;0.85;;;20.10;99.90;;;;;;5021941;28;20037;-71
2021/09/15 12:15:06;;;;;;;4.32;0.80;;;20.10;99.90;;;;;;5021488;28;20037;-71
2021/09/15 12:17:36;;;;;;;2.40;0.40;;;20.10;99.90;;;;;;5019728;28;20042;-71
2021/09/15 12:20:07;;;;;;;8.43;0.93;;;20.00;99.90;;;;;;5021508;28;20446;-71
2021/09/15 12:22:32;;;;;;;1.75;0.88;;;20.00;99.90;;;;;;5021939;28;20030;-71
2021/09/15 12:25:06;;;;;;;7.13;1.10;;;19.90;99.90;;;;;;5023006;28;20038;-71
2021/09/15 12:27:33;;;;;;;4.15;1.10;;;19.90;99.90;;;;;;5018544;28;20164;-71
2021/09/15 12:30:13;;;;;;;3.10;1.05;;;19.90;99.90;;;;;;5011795;28;20444;-71
2021/09/15 12:32:41;;;;;;;3.88;0.82;;;20.00;99.90;;;;;;5011976;28;20030;-71
2021/09/15 12:35:22;;;;;;;2.50;1.05;;;19.90;99.90;;;;;;5011839;28;20572;-71
2021/09/15 12:37:58;;;;;;;1.88;0.70;;;20.00;99.90;;;;;;5008273;28;20136;-71
2021/09/15 12:40:23;;;;;;;9.80;1.02;;;20.00;99.90;;;;;;5006142;28;20207;-72
2021/09/15 12:43:05;;;;;;;4.18;0.80;;;20.10;99.90;;;;;;5011234;28;20120;-71
2021/09/15 12:45:32;;;;;;;5.20;1.17;;;20.10;99.90;;;;;;5009329;28;20045;-71
2021/09/15 12:47:59;;;;;;;2.90;1.08;;;20.10;99.90;;;;;;5010518;28;20054;-71
2021/09/15 12:50:29;;;;;;;4.32;1.40;;;20.20;99.90;;;;;;5011417;28;20041;-72
2021/09/15 12:53:06;;;;;;;5.45;2.08;;;20.30;99.90;;;;;;5028623;28;20045;-71
2021/09/15 12:55:32;;;;;;;2.97;1.67;;;20.30;99.90;;;;;;5021042;28;20330;-72
2021/09/15 12:58:03;;;;;;;3.35;1.25;;;20.20;99.90;;;;;;5020785;28;20044;-71